sensor_id;sensor_type;location;lat;lon;timestamp;temperature;humidity
12720;DHT22;6424;48.520;11.228;2023-11-19T00:01:34;5.20;99.90
12720;DHT22;6424;48.520;11.228;2023-11-19T00:04:18;5.20;99.90
12720;DHT22;6424;48.520;11.228;2023-11-19T00:07:03;5.30;99.90
12720;DHT22;6424;48.520;11.228;2023-11-19T00:09:49;5.30;99.90
12720;DHT22;6424;48.520;11.228;2023-11-19T00:12:34;5.30;99.90
12720;DHT22;6424;48.520;11.228;2023-11-19T00:15:18;5.30;99.90
12720;DHT22;6424;48.520;11.228;2023-11-19T00:18:03;5.30;99.90
12720;DHT22;6424;48.520;11.228;2023-11-19T00:20:48;5.40;99.90
12720;DHT22;6424;48.520;11.228;2023-11-19T00:23:32;5.40;99.90
12720;DHT22;6424;48.520;11.228;2023-11-19T00:26:17;5.40;99.90
12720;DHT22;6424;48.520;11.228;2023-11-19T00:29:01;5.40;99.90
12720;DHT22;6424;48.520;11.228;2023-11-19T00:31:45;5.50;99.90
12720;DHT22;6424;48.520;11.228;2023-11-19T00:34:29;5.50;99.90
12720;DHT22;6424;48.520;11.228;2023-11-19T00:37:14;5.50;99.90
12720;DHT22;6424;48.520;11.228;2023-11-19T00:40:02;5.60;99.90
12720;DHT22;6424;48.520;11.228;2023-11-19T00:42:49;5.60;99.90
12720;DHT22;6424;48.520;11.228;2023-11-19T00:45:34;5.60;99.90
12720;DHT22;6424;48.520;11.228;2023-11-19T00:48:18;5.60;99.90
12720;DHT22;6424;48.520;11.228;2023-11-19T00:51:02;5.70;99.90
12720;DHT22;6424;48.520;11.228;2023-11-19T00:53:48;5.70;99.90
12720;DHT22;6424;48.520;11.228;2023-11-19T00:56:32;5.70;99.90
12720;DHT22;6424;48.520;11.228;2023-11-19T00:59:16;5.70;99.90
12720;DHT22;6424;48.520;11.228;2023-11-19T01:02:00;5.70;99.90
12720;DHT22;6424;48.520;11.228;2023-11-19T01:04:48;5.80;99.90
12720;DHT22;6424;48.520;11.228;2023-11-19T01:07:33;5.80;99.90
12720;DHT22;6424;48.520;11.228;2023-11-19T01:10:17;5.80;99.90
12720;DHT22;6424;48.520;11.228;2023-11-19T01:13:02;5.90;99.90
12720;DHT22;6424;48.520;11.228;2023-11-19T01:15:49;5.90;99.90
12720;DHT22;6424;48.520;11.228;2023-11-19T01:18:33;5.90;99.90
12720;DHT22;6424;48.520;11.228;2023-11-19T01:21:19;5.90;99.90
12720;DHT22;6424;48.520;11.228;2023-11-19T01:24:03;6.00;99.90
12720;DHT22;6424;48.520;11.228;2023-11-19T01:26:50;6.00;99.90
12720;DHT22;6424;48.520;11.228;2023-11-19T01:29:36;6.00;99.90
12720;DHT22;6424;48.520;11.228;2023-11-19T01:32:21;6.00;99.90
12720;DHT22;6424;48.520;11.228;2023-11-19T01:35:08;6.00;99.90
12720;DHT22;6424;48.520;11.228;2023-11-19T01:37:52;6.00;99.90
12720;DHT22;6424;48.520;11.228;2023-11-19T01:40:39;6.00;99.90
12720;DHT22;6424;48.520;11.228;2023-11-19T01:43:37;6.10;99.90
12720;DHT22;6424;48.520;11.228;2023-11-19T01:46:21;6.10;99.90
12720;DHT22;6424;48.520;11.228;2023-11-19T01:49:06;6.10;99.90
12720;DHT22;6424;48.520;11.228;2023-11-19T01:51:51;6.10;99.90
12720;DHT22;6424;48.520;11.228;2023-11-19T01:54:36;6.10;99.90
12720;DHT22;6424;48.520;11.228;2023-11-19T01:57:22;6.20;99.90
12720;DHT22;6424;48.520;11.228;2023-11-19T02:00:08;6.20;99.90
12720;DHT22;6424;48.520;11.228;2023-11-19T02:02:56;6.30;99.90
12720;DHT22;6424;48.520;11.228;2023-11-19T02:05:41;6.30;99.90
12720;DHT22;6424;48.520;11.228;2023-11-19T02:08:26;6.30;99.90
12720;DHT22;6424;48.520;11.228;2023-11-19T02:11:10;6.40;99.90
12720;DHT22;6424;48.520;11.228;2023-11-19T02:13:57;6.40;99.90
12720;DHT22;6424;48.520;11.228;2023-11-19T02:16:41;6.40;99.90
12720;DHT22;6424;48.520;11.228;2023-11-19T02:19:25;6.40;99.90
12720;DHT22;6424;48.520;11.228;2023-11-19T02:22:09;6.50;99.90
12720;DHT22;6424;48.520;11.228;2023-11-19T02:24:58;6.50;99.90
12720;DHT22;6424;48.520;11.228;2023-11-19T02:27:58;6.50;99.90
12720;DHT22;6424;48.520;11.228;2023-11-19T02:30:43;6.50;99.90
12720;DHT22;6424;48.520;11.228;2023-11-19T02:33:28;6.60;99.90
12720;DHT22;6424;48.520;11.228;2023-11-19T02:36:12;6.60;99.90
12720;DHT22;6424;48.520;11.228;2023-11-19T02:38:57;6.70;99.90
12720;DHT22;6424;48.520;11.228;2023-11-19T02:41:41;6.70;99.90
12720;DHT22;6424;48.520;11.228;2023-11-19T02:44:25;6.80;99.90
12720;DHT22;6424;48.520;11.228;2023-11-19T02:47:12;6.90;99.90
12720;DHT22;6424;48.520;11.228;2023-11-19T02:49:56;7.00;99.90
12720;DHT22;6424;48.520;11.228;2023-11-19T02:52:42;7.10;99.90
12720;DHT22;6424;48.520;11.228;2023-11-19T02:55:27;7.10;99.90
12720;DHT22;6424;48.520;11.228;2023-11-19T02:58:14;7.20;99.90
12720;DHT22;6424;48.520;11.228;2023-11-19T03:01:07;7.20;99.90
12720;DHT22;6424;48.520;11.228;2023-11-19T03:04:03;7.20;99.90
12720;DHT22;6424;48.520;11.228;2023-11-19T03:06:47;7.30;99.90
12720;DHT22;6424;48.520;11.228;2023-11-19T03:09:33;7.30;99.90
12720;DHT22;6424;48.520;11.228;2023-11-19T03:12:18;7.30;99.90
12720;DHT22;6424;48.520;11.228;2023-11-19T03:15:03;7.30;99.90
12720;DHT22;6424;48.520;11.228;2023-11-19T03:17:47;7.40;99.90
12720;DHT22;6424;48.520;11.228;2023-11-19T03:20:32;7.40;99.90
12720;DHT22;6424;48.520;11.228;2023-11-19T03:23:16;7.40;99.90
12720;DHT22;6424;48.520;11.228;2023-11-19T03:26:01;7.50;99.90
12720;DHT22;6424;48.520;11.228;2023-11-19T03:28:49;7.50;99.90
12720;DHT22;6424;48.520;11.228;2023-11-19T03:31:33;7.50;99.90
12720;DHT22;6424;48.520;11.228;2023-11-19T03:34:17;7.50;99.90
12720;DHT22;6424;48.520;11.228;2023-11-19T03:37:01;7.50;99.90
12720;DHT22;6424;48.520;11.228;2023-11-19T03:39:45;7.50;99.90
12720;DHT22;6424;48.520;11.228;2023-11-19T03:42:29;7.60;99.90
12720;DHT22;6424;48.520;11.228;2023-11-19T03:45:17;7.60;99.90
12720;DHT22;6424;48.520;11.228;2023-11-19T03:48:01;7.60;99.90
12720;DHT22;6424;48.520;11.228;2023-11-19T03:50:46;7.60;99.90
12720;DHT22;6424;48.520;11.228;2023-11-19T03:53:30;7.60;99.90
12720;DHT22;6424;48.520;11.228;2023-11-19T03:56:14;7.60;99.90
12720;DHT22;6424;48.520;11.228;2023-11-19T03:58:58;7.70;99.90
12720;DHT22;6424;48.520;11.228;2023-11-19T04:01:43;7.70;99.90
12720;DHT22;6424;48.520;11.228;2023-11-19T04:04:28;7.70;99.90
12720;DHT22;6424;48.520;11.228;2023-11-19T04:07:15;7.60;99.90
12720;DHT22;6424;48.520;11.228;2023-11-19T04:10:00;7.70;99.90
12720;DHT22;6424;48.520;11.228;2023-11-19T04:12:44;7.70;99.90
12720;DHT22;6424;48.520;11.228;2023-11-19T04:15:29;7.70;99.90
12720;DHT22;6424;48.520;11.228;2023-11-19T04:18:13;7.70;99.90
12720;DHT22;6424;48.520;11.228;2023-11-19T04:20:57;7.70;99.90
12720;DHT22;6424;48.520;11.228;2023-11-19T04:23:41;7.70;99.90
12720;DHT22;6424;48.520;11.228;2023-11-19T04:26:26;7.70;99.90
12720;DHT22;6424;48.520;11.228;2023-11-19T04:29:15;7.80;99.90
12720;DHT22;6424;48.520;11.228;2023-11-19T04:31:59;7.80;99.90
12720;DHT22;6424;48.520;11.228;2023-11-19T04:34:45;7.70;99.90
12720;DHT22;6424;48.520;11.228;2023-11-19T04:37:29;7.70;99.90
12720;DHT22;6424;48.520;11.228;2023-11-19T04:40:13;7.70;99.90
12720;DHT22;6424;48.520;11.228;2023-11-19T04:42:58;7.80;99.90
12720;DHT22;6424;48.520;11.228;2023-11-19T04:45:43;7.80;99.90
12720;DHT22;6424;48.520;11.228;2023-11-19T04:48:27;7.80;99.90
12720;DHT22;6424;48.520;11.228;2023-11-19T04:51:11;7.80;99.90
12720;DHT22;6424;48.520;11.228;2023-11-19T04:53:55;7.80;99.90
12720;DHT22;6424;48.520;11.228;2023-11-19T04:56:40;7.80;99.90
12720;DHT22;6424;48.520;11.228;2023-11-19T04:59:28;7.80;99.90
12720;DHT22;6424;48.520;11.228;2023-11-19T05:02:13;7.80;99.90
12720;DHT22;6424;48.520;11.228;2023-11-19T05:05:00;7.80;99.90
12720;DHT22;6424;48.520;11.228;2023-11-19T05:07:44;7.80;99.90
12720;DHT22;6424;48.520;11.228;2023-11-19T05:10:29;7.80;99.90
12720;DHT22;6424;48.520;11.228;2023-11-19T05:13:13;7.80;99.90
12720;DHT22;6424;48.520;11.228;2023-11-19T05:15:57;7.90;99.90
12720;DHT22;6424;48.520;11.228;2023-11-19T05:18:42;7.90;99.90
12720;DHT22;6424;48.520;11.228;2023-11-19T05:21:27;7.90;99.90
12720;DHT22;6424;48.520;11.228;2023-11-19T05:24:12;8.00;99.90
12720;DHT22;6424;48.520;11.228;2023-11-19T05:26:56;7.90;99.90
12720;DHT22;6424;48.520;11.228;2023-11-19T05:29:41;8.00;99.90
12720;DHT22;6424;48.520;11.228;2023-11-19T05:32:27;8.00;99.90
12720;DHT22;6424;48.520;11.228;2023-11-19T05:35:12;8.00;99.90
12720;DHT22;6424;48.520;11.228;2023-11-19T05:37:56;8.00;99.90
12720;DHT22;6424;48.520;11.228;2023-11-19T05:40:41;8.00;99.90
12720;DHT22;6424;48.520;11.228;2023-11-19T05:43:26;8.10;99.90
12720;DHT22;6424;48.520;11.228;2023-11-19T05:46:10;8.10;99.90
12720;DHT22;6424;48.520;11.228;2023-11-19T05:48:55;8.10;99.90
12720;DHT22;6424;48.520;11.228;2023-11-19T05:51:40;8.10;99.90
12720;DHT22;6424;48.520;11.228;2023-11-19T05:54:24;8.10;99.90
12720;DHT22;6424;48.520;11.228;2023-11-19T05:57:09;8.10;99.90
12720;DHT22;6424;48.520;11.228;2023-11-19T05:59:53;8.20;99.90
12720;DHT22;6424;48.520;11.228;2023-11-19T06:02:38;8.20;99.90
12720;DHT22;6424;48.520;11.228;2023-11-19T06:05:22;8.20;99.90
12720;DHT22;6424;48.520;11.228;2023-11-19T06:08:07;8.20;99.90
12720;DHT22;6424;48.520;11.228;2023-11-19T06:10:51;8.20;99.90
12720;DHT22;6424;48.520;11.228;2023-11-19T06:13:36;8.20;99.90
12720;DHT22;6424;48.520;11.228;2023-11-19T06:16:20;8.30;99.90
12720;DHT22;6424;48.520;11.228;2023-11-19T06:19:05;8.30;99.90
12720;DHT22;6424;48.520;11.228;2023-11-19T06:21:49;8.30;99.90
12720;DHT22;6424;48.520;11.228;2023-11-19T06:24:33;8.30;99.90
12720;DHT22;6424;48.520;11.228;2023-11-19T06:27:18;8.40;99.90
12720;DHT22;6424;48.520;11.228;2023-11-19T06:30:04;8.30;99.90
12720;DHT22;6424;48.520;11.228;2023-11-19T06:32:49;8.40;99.90
12720;DHT22;6424;48.520;11.228;2023-11-19T06:35:34;8.40;99.90
12720;DHT22;6424;48.520;11.228;2023-11-19T06:38:20;8.40;99.90
12720;DHT22;6424;48.520;11.228;2023-11-19T06:41:07;8.40;99.90
12720;DHT22;6424;48.520;11.228;2023-11-19T06:43:52;8.40;99.90
12720;DHT22;6424;48.520;11.228;2023-11-19T06:46:37;8.40;99.90
12720;DHT22;6424;48.520;11.228;2023-11-19T06:49:21;8.40;99.90
12720;DHT22;6424;48.520;11.228;2023-11-19T06:52:07;8.50;99.90
12720;DHT22;6424;48.520;11.228;2023-11-19T06:54:51;8.50;99.90
12720;DHT22;6424;48.520;11.228;2023-11-19T06:57:35;8.50;99.90
12720;DHT22;6424;48.520;11.228;2023-11-19T07:00:19;8.50;99.90
12720;DHT22;6424;48.520;11.228;2023-11-19T07:03:04;8.50;99.90
12720;DHT22;6424;48.520;11.228;2023-11-19T07:05:50;8.60;99.90
12720;DHT22;6424;48.520;11.228;2023-11-19T07:08:34;8.60;99.90
12720;DHT22;6424;48.520;11.228;2023-11-19T07:11:18;8.60;99.90
12720;DHT22;6424;48.520;11.228;2023-11-19T07:14:03;8.60;99.90
12720;DHT22;6424;48.520;11.228;2023-11-19T07:16:48;8.60;99.90
12720;DHT22;6424;48.520;11.228;2023-11-19T07:19:32;8.70;99.90
12720;DHT22;6424;48.520;11.228;2023-11-19T07:22:17;8.70;99.90
12720;DHT22;6424;48.520;11.228;2023-11-19T07:25:01;8.70;99.90
12720;DHT22;6424;48.520;11.228;2023-11-19T07:27:46;8.70;99.90
12720;DHT22;6424;48.520;11.228;2023-11-19T07:30:31;8.80;99.90
12720;DHT22;6424;48.520;11.228;2023-11-19T07:33:16;8.80;99.90
12720;DHT22;6424;48.520;11.228;2023-11-19T07:36:01;8.80;99.90
12720;DHT22;6424;48.520;11.228;2023-11-19T07:38:46;8.80;99.90
12720;DHT22;6424;48.520;11.228;2023-11-19T07:41:32;8.90;99.90
12720;DHT22;6424;48.520;11.228;2023-11-19T07:44:17;8.90;99.90
12720;DHT22;6424;48.520;11.228;2023-11-19T07:47:01;8.90;99.90
12720;DHT22;6424;48.520;11.228;2023-11-19T07:49:45;9.00;99.90
12720;DHT22;6424;48.520;11.228;2023-11-19T07:52:30;9.00;99.90
12720;DHT22;6424;48.520;11.228;2023-11-19T07:55:14;9.10;99.90
12720;DHT22;6424;48.520;11.228;2023-11-19T07:57:59;9.10;99.90
12720;DHT22;6424;48.520;11.228;2023-11-19T08:00:43;9.10;99.90
12720;DHT22;6424;48.520;11.228;2023-11-19T08:03:28;9.20;99.90
12720;DHT22;6424;48.520;11.228;2023-11-19T08:06:13;9.30;99.90
12720;DHT22;6424;48.520;11.228;2023-11-19T08:08:57;9.30;99.90
12720;DHT22;6424;48.520;11.228;2023-11-19T08:11:42;9.40;99.90
12720;DHT22;6424;48.520;11.228;2023-11-19T08:14:26;9.40;99.90
12720;DHT22;6424;48.520;11.228;2023-11-19T08:17:10;9.50;99.90
12720;DHT22;6424;48.520;11.228;2023-11-19T08:19:55;9.50;99.90
12720;DHT22;6424;48.520;11.228;2023-11-19T08:22:39;9.60;99.90
12720;DHT22;6424;48.520;11.228;2023-11-19T08:25:23;9.60;99.90
12720;DHT22;6424;48.520;11.228;2023-11-19T08:28:08;9.70;99.90
12720;DHT22;6424;48.520;11.228;2023-11-19T08:30:52;9.70;99.90
12720;DHT22;6424;48.520;11.228;2023-11-19T08:33:36;9.80;99.90
12720;DHT22;6424;48.520;11.228;2023-11-19T08:36:21;9.80;99.90
12720;DHT22;6424;48.520;11.228;2023-11-19T08:39:05;9.90;99.90
12720;DHT22;6424;48.520;11.228;2023-11-19T08:41:49;9.90;99.90
12720;DHT22;6424;48.520;11.228;2023-11-19T08:44:34;9.90;99.90
12720;DHT22;6424;48.520;11.228;2023-11-19T08:47:18;9.90;99.90
12720;DHT22;6424;48.520;11.228;2023-11-19T08:50:03;9.90;99.90
12720;DHT22;6424;48.520;11.228;2023-11-19T08:52:48;9.90;99.90
12720;DHT22;6424;48.520;11.228;2023-11-19T08:55:32;10.00;99.90
12720;DHT22;6424;48.520;11.228;2023-11-19T08:58:16;10.10;99.90
12720;DHT22;6424;48.520;11.228;2023-11-19T09:01:02;10.10;99.90
12720;DHT22;6424;48.520;11.228;2023-11-19T09:03:47;10.10;99.90
12720;DHT22;6424;48.520;11.228;2023-11-19T09:06:31;10.20;99.90
12720;DHT22;6424;48.520;11.228;2023-11-19T09:09:16;10.20;99.90
12720;DHT22;6424;48.520;11.228;2023-11-19T09:12:01;10.20;99.90
12720;DHT22;6424;48.520;11.228;2023-11-19T09:14:45;10.30;99.90
12720;DHT22;6424;48.520;11.228;2023-11-19T09:17:30;10.30;99.90
12720;DHT22;6424;48.520;11.228;2023-11-19T09:20:14;10.50;99.90
12720;DHT22;6424;48.520;11.228;2023-11-19T09:22:59;10.50;99.90
12720;DHT22;6424;48.520;11.228;2023-11-19T09:25:43;10.70;99.90
12720;DHT22;6424;48.520;11.228;2023-11-19T09:28:27;10.80;99.90
12720;DHT22;6424;48.520;11.228;2023-11-19T09:31:18;10.90;99.90
12720;DHT22;6424;48.520;11.228;2023-11-19T09:34:02;10.90;99.90
12720;DHT22;6424;48.520;11.228;2023-11-19T09:36:46;10.90;99.90
12720;DHT22;6424;48.520;11.228;2023-11-19T09:39:31;10.80;99.90
12720;DHT22;6424;48.520;11.228;2023-11-19T09:42:15;10.90;99.90
12720;DHT22;6424;48.520;11.228;2023-11-19T09:45:02;10.90;99.90
12720;DHT22;6424;48.520;11.228;2023-11-19T09:47:51;11.00;99.90
12720;DHT22;6424;48.520;11.228;2023-11-19T09:50:36;11.20;99.90
12720;DHT22;6424;48.520;11.228;2023-11-19T09:53:22;11.30;99.90
12720;DHT22;6424;48.520;11.228;2023-11-19T09:56:06;11.40;99.90
12720;DHT22;6424;48.520;11.228;2023-11-19T09:58:52;11.40;99.90
12720;DHT22;6424;48.520;11.228;2023-11-19T10:01:38;11.40;99.90
12720;DHT22;6424;48.520;11.228;2023-11-19T10:04:22;11.50;99.90
12720;DHT22;6424;48.520;11.228;2023-11-19T10:07:07;11.60;99.90
12720;DHT22;6424;48.520;11.228;2023-11-19T10:09:51;11.70;99.90
12720;DHT22;6424;48.520;11.228;2023-11-19T10:12:35;11.70;99.90
12720;DHT22;6424;48.520;11.228;2023-11-19T10:15:22;11.70;99.90
12720;DHT22;6424;48.520;11.228;2023-11-19T10:18:06;11.70;99.90
12720;DHT22;6424;48.520;11.228;2023-11-19T10:20:50;11.80;99.90
12720;DHT22;6424;48.520;11.228;2023-11-19T10:24:05;11.80;99.90
12720;DHT22;6424;48.520;11.228;2023-11-19T10:26:49;11.90;99.90
12720;DHT22;6424;48.520;11.228;2023-11-19T10:29:38;12.00;99.90
12720;DHT22;6424;48.520;11.228;2023-11-19T10:32:23;12.00;99.90
12720;DHT22;6424;48.520;11.228;2023-11-19T10:35:07;12.10;99.90
12720;DHT22;6424;48.520;11.228;2023-11-19T10:37:52;12.00;99.90
12720;DHT22;6424;48.520;11.228;2023-11-19T10:40:40;12.00;99.90
12720;DHT22;6424;48.520;11.228;2023-11-19T10:43:24;12.00;99.90
12720;DHT22;6424;48.520;11.228;2023-11-19T10:46:10;12.10;99.90
12720;DHT22;6424;48.520;11.228;2023-11-19T10:48:55;12.20;99.90
12720;DHT22;6424;48.520;11.228;2023-11-19T10:51:45;12.40;99.90
12720;DHT22;6424;48.520;11.228;2023-11-19T10:54:30;12.50;99.90
12720;DHT22;6424;48.520;11.228;2023-11-19T10:57:20;12.60;99.90
12720;DHT22;6424;48.520;11.228;2023-11-19T11:00:06;12.70;99.90
12720;DHT22;6424;48.520;11.228;2023-11-19T11:03:02;12.60;99.90
12720;DHT22;6424;48.520;11.228;2023-11-19T11:05:51;12.70;99.90
12720;DHT22;6424;48.520;11.228;2023-11-19T11:08:37;12.70;99.90
12720;DHT22;6424;48.520;11.228;2023-11-19T11:11:21;12.80;99.90
12720;DHT22;6424;48.520;11.228;2023-11-19T11:14:07;12.80;99.90
12720;DHT22;6424;48.520;11.228;2023-11-19T11:16:56;12.80;99.90
12720;DHT22;6424;48.520;11.228;2023-11-19T11:19:42;12.90;99.90
12720;DHT22;6424;48.520;11.228;2023-11-19T11:22:28;12.90;99.90
12720;DHT22;6424;48.520;11.228;2023-11-19T11:25:28;12.90;99.90
12720;DHT22;6424;48.520;11.228;2023-11-19T11:34:58;13.00;99.90
12720;DHT22;6424;48.520;11.228;2023-11-19T11:37:46;13.00;99.90
12720;DHT22;6424;48.520;11.228;2023-11-19T11:40:32;13.10;99.90
12720;DHT22;6424;48.520;11.228;2023-11-19T11:43:43;13.00;99.90
12720;DHT22;6424;48.520;11.228;2023-11-19T11:49:25;13.00;99.90
12720;DHT22;6424;48.520;11.228;2023-11-19T11:52:10;13.00;99.90
12720;DHT22;6424;48.520;11.228;2023-11-19T11:55:04;13.00;99.90
12720;DHT22;6424;48.520;11.228;2023-11-19T11:57:52;13.00;99.90
12720;DHT22;6424;48.520;11.228;2023-11-19T12:00:40;12.90;99.90
12720;DHT22;6424;48.520;11.228;2023-11-19T12:03:28;12.80;99.90
12720;DHT22;6424;48.520;11.228;2023-11-19T12:06:12;12.90;99.90
12720;DHT22;6424;48.520;11.228;2023-11-19T12:09:00;12.80;99.90
12720;DHT22;6424;48.520;11.228;2023-11-19T12:11:47;12.80;99.90
12720;DHT22;6424;48.520;11.228;2023-11-19T12:15:01;12.80;99.90
12720;DHT22;6424;48.520;11.228;2023-11-19T12:17:49;12.80;99.90
12720;DHT22;6424;48.520;11.228;2023-11-19T12:20:34;12.80;99.90
12720;DHT22;6424;48.520;11.228;2023-11-19T12:23:22;12.80;99.90
12720;DHT22;6424;48.520;11.228;2023-11-19T12:26:06;12.90;99.90
12720;DHT22;6424;48.520;11.228;2023-11-19T12:28:58;13.00;99.90
12720;DHT22;6424;48.520;11.228;2023-11-19T12:31:44;13.00;99.90
12720;DHT22;6424;48.520;11.228;2023-11-19T12:34:29;13.10;99.90
12720;DHT22;6424;48.520;11.228;2023-11-19T12:37:13;13.20;99.90
12720;DHT22;6424;48.520;11.228;2023-11-19T12:39:58;13.30;99.90
12720;DHT22;6424;48.520;11.228;2023-11-19T12:42:50;13.40;99.90
12720;DHT22;6424;48.520;11.228;2023-11-19T12:45:35;13.30;99.90
12720;DHT22;6424;48.520;11.228;2023-11-19T12:48:20;13.30;99.90
12720;DHT22;6424;48.520;11.228;2023-11-19T12:51:04;13.20;99.90
12720;DHT22;6424;48.520;11.228;2023-11-19T12:53:52;13.20;99.90
12720;DHT22;6424;48.520;11.228;2023-11-19T12:56:52;13.20;99.90
12720;DHT22;6424;48.520;11.228;2023-11-19T12:59:37;13.20;99.90
12720;DHT22;6424;48.520;11.228;2023-11-19T13:02:21;13.10;99.90
12720;DHT22;6424;48.520;11.228;2023-11-19T13:08:12;13.00;99.90
12720;DHT22;6424;48.520;11.228;2023-11-19T13:10:56;13.00;99.90
12720;DHT22;6424;48.520;11.228;2023-11-19T13:13:58;13.00;99.90
12720;DHT22;6424;48.520;11.228;2023-11-19T13:16:43;13.10;99.90
12720;DHT22;6424;48.520;11.228;2023-11-19T13:19:29;13.10;99.90
12720;DHT22;6424;48.520;11.228;2023-11-19T13:22:13;13.20;99.90
12720;DHT22;6424;48.520;11.228;2023-11-19T13:24:58;13.20;99.90
12720;DHT22;6424;48.520;11.228;2023-11-19T13:27:46;13.20;99.90
12720;DHT22;6424;48.520;11.228;2023-11-19T13:30:30;13.10;99.90
12720;DHT22;6424;48.520;11.228;2023-11-19T13:33:14;13.10;99.90
12720;DHT22;6424;48.520;11.228;2023-11-19T13:35:58;13.10;99.90
12720;DHT22;6424;48.520;11.228;2023-11-19T13:38:46;13.10;99.90
12720;DHT22;6424;48.520;11.228;2023-11-19T13:41:33;13.10;99.90
12720;DHT22;6424;48.520;11.228;2023-11-19T13:44:17;13.10;99.90
12720;DHT22;6424;48.520;11.228;2023-11-19T13:47:02;13.10;99.90
12720;DHT22;6424;48.520;11.228;2023-11-19T13:49:47;13.00;99.90
12720;DHT22;6424;48.520;11.228;2023-11-19T13:52:31;13.10;99.90
12720;DHT22;6424;48.520;11.228;2023-11-19T13:55:15;13.00;99.90
12720;DHT22;6424;48.520;11.228;2023-11-19T13:58:00;13.00;99.90
12720;DHT22;6424;48.520;11.228;2023-11-19T14:00:44;13.00;99.90
12720;DHT22;6424;48.520;11.228;2023-11-19T14:03:29;13.00;99.90
12720;DHT22;6424;48.520;11.228;2023-11-19T14:06:13;13.00;99.90
12720;DHT22;6424;48.520;11.228;2023-11-19T14:08:58;13.00;99.90
12720;DHT22;6424;48.520;11.228;2023-11-19T14:11:42;13.00;99.90
12720;DHT22;6424;48.520;11.228;2023-11-19T14:14:27;12.90;99.90
12720;DHT22;6424;48.520;11.228;2023-11-19T14:17:11;12.90;99.90
12720;DHT22;6424;48.520;11.228;2023-11-19T14:19:57;12.80;99.90
12720;DHT22;6424;48.520;11.228;2023-11-19T14:22:42;12.80;99.90
12720;DHT22;6424;48.520;11.228;2023-11-19T14:25:27;12.80;99.90
12720;DHT22;6424;48.520;11.228;2023-11-19T14:28:11;12.70;99.90
12720;DHT22;6424;48.520;11.228;2023-11-19T14:30:56;12.60;99.90
12720;DHT22;6424;48.520;11.228;2023-11-19T14:33:41;12.60;99.90
12720;DHT22;6424;48.520;11.228;2023-11-19T14:36:26;12.50;99.90
12720;DHT22;6424;48.520;11.228;2023-11-19T14:39:10;12.50;99.90
12720;DHT22;6424;48.520;11.228;2023-11-19T14:41:54;12.50;99.90
12720;DHT22;6424;48.520;11.228;2023-11-19T14:44:41;12.40;99.90
12720;DHT22;6424;48.520;11.228;2023-11-19T14:47:26;12.40;99.90
12720;DHT22;6424;48.520;11.228;2023-11-19T14:50:10;12.40;99.90
12720;DHT22;6424;48.520;11.228;2023-11-19T14:52:54;12.30;99.90
12720;DHT22;6424;48.520;11.228;2023-11-19T14:55:39;12.30;99.90
12720;DHT22;6424;48.520;11.228;2023-11-19T14:58:23;12.30;99.90
12720;DHT22;6424;48.520;11.228;2023-11-19T15:01:13;12.30;99.90
12720;DHT22;6424;48.520;11.228;2023-11-19T15:03:58;12.20;99.90
12720;DHT22;6424;48.520;11.228;2023-11-19T15:06:42;12.10;99.90
12720;DHT22;6424;48.520;11.228;2023-11-19T15:09:26;12.00;99.90
12720;DHT22;6424;48.520;11.228;2023-11-19T15:12:10;11.90;99.90
12720;DHT22;6424;48.520;11.228;2023-11-19T15:14:55;11.90;99.90
12720;DHT22;6424;48.520;11.228;2023-11-19T15:17:40;11.80;99.90
12720;DHT22;6424;48.520;11.228;2023-11-19T15:20:24;11.70;99.90
12720;DHT22;6424;48.520;11.228;2023-11-19T15:23:08;11.70;99.90
12720;DHT22;6424;48.520;11.228;2023-11-19T15:25:54;11.60;99.90
12720;DHT22;6424;48.520;11.228;2023-11-19T15:28:39;11.60;99.90
12720;DHT22;6424;48.520;11.228;2023-11-19T15:31:23;11.50;99.90
12720;DHT22;6424;48.520;11.228;2023-11-19T15:34:07;11.50;99.90
12720;DHT22;6424;48.520;11.228;2023-11-19T15:36:52;11.40;99.90
12720;DHT22;6424;48.520;11.228;2023-11-19T15:39:36;11.30;99.90
12720;DHT22;6424;48.520;11.228;2023-11-19T15:42:20;11.30;99.90
12720;DHT22;6424;48.520;11.228;2023-11-19T15:45:05;11.20;99.90
12720;DHT22;6424;48.520;11.228;2023-11-19T15:47:51;11.10;99.90
12720;DHT22;6424;48.520;11.228;2023-11-19T15:50:36;11.00;99.90
12720;DHT22;6424;48.520;11.228;2023-11-19T15:53:20;11.00;99.90
12720;DHT22;6424;48.520;11.228;2023-11-19T15:56:05;11.00;99.90
12720;DHT22;6424;48.520;11.228;2023-11-19T15:58:49;11.00;99.90
12720;DHT22;6424;48.520;11.228;2023-11-19T16:01:34;11.00;99.90
12720;DHT22;6424;48.520;11.228;2023-11-19T16:04:18;11.00;99.90
12720;DHT22;6424;48.520;11.228;2023-11-19T16:07:02;11.10;99.90
12720;DHT22;6424;48.520;11.228;2023-11-19T16:09:47;11.10;99.90
12720;DHT22;6424;48.520;11.228;2023-11-19T16:12:32;11.20;99.90
12720;DHT22;6424;48.520;11.228;2023-11-19T16:15:16;11.20;99.90
12720;DHT22;6424;48.520;11.228;2023-11-19T16:18:00;11.30;99.90
12720;DHT22;6424;48.520;11.228;2023-11-19T16:20:44;11.30;99.90
12720;DHT22;6424;48.520;11.228;2023-11-19T16:23:28;11.30;99.90
12720;DHT22;6424;48.520;11.228;2023-11-19T16:26:12;11.20;99.90
12720;DHT22;6424;48.520;11.228;2023-11-19T16:28:57;11.30;99.90
12720;DHT22;6424;48.520;11.228;2023-11-19T16:31:41;11.30;99.90
12720;DHT22;6424;48.520;11.228;2023-11-19T16:34:27;11.20;99.90
12720;DHT22;6424;48.520;11.228;2023-11-19T16:37:11;11.10;99.90
12720;DHT22;6424;48.520;11.228;2023-11-19T16:39:55;11.20;99.90
12720;DHT22;6424;48.520;11.228;2023-11-19T16:42:40;11.10;99.90
12720;DHT22;6424;48.520;11.228;2023-11-19T16:45:24;11.00;99.90
12720;DHT22;6424;48.520;11.228;2023-11-19T16:48:08;11.00;99.90
12720;DHT22;6424;48.520;11.228;2023-11-19T16:50:53;10.90;99.90
12720;DHT22;6424;48.520;11.228;2023-11-19T16:53:37;10.90;99.90
12720;DHT22;6424;48.520;11.228;2023-11-19T16:56:22;10.90;99.90
12720;DHT22;6424;48.520;11.228;2023-11-19T16:59:06;10.90;99.90
12720;DHT22;6424;48.520;11.228;2023-11-19T17:01:50;10.90;99.90
12720;DHT22;6424;48.520;11.228;2023-11-19T17:04:35;10.90;99.90
12720;DHT22;6424;48.520;11.228;2023-11-19T17:07:19;10.90;99.90
12720;DHT22;6424;48.520;11.228;2023-11-19T17:10:04;10.80;99.90
12720;DHT22;6424;48.520;11.228;2023-11-19T17:12:48;10.80;99.90
12720;DHT22;6424;48.520;11.228;2023-11-19T17:15:33;10.90;99.90
12720;DHT22;6424;48.520;11.228;2023-11-19T17:18:19;10.90;99.90
12720;DHT22;6424;48.520;11.228;2023-11-19T17:21:03;10.90;99.90
12720;DHT22;6424;48.520;11.228;2023-11-19T17:23:48;11.00;99.90
12720;DHT22;6424;48.520;11.228;2023-11-19T17:26:33;11.00;99.90
12720;DHT22;6424;48.520;11.228;2023-11-19T17:29:17;11.00;99.90
12720;DHT22;6424;48.520;11.228;2023-11-19T17:32:02;11.00;99.90
12720;DHT22;6424;48.520;11.228;2023-11-19T17:34:47;11.00;99.90
12720;DHT22;6424;48.520;11.228;2023-11-19T17:37:31;10.90;99.90
12720;DHT22;6424;48.520;11.228;2023-11-19T17:40:16;10.90;99.90
12720;DHT22;6424;48.520;11.228;2023-11-19T17:43:01;10.90;99.90
12720;DHT22;6424;48.520;11.228;2023-11-19T17:45:45;10.90;99.90